Time;durP1;ratioP1;P1;durP2;ratioP2;P2;SDS_P1;SDS_P2;PMS_P1;PMS_P2;Temp;Humidity;BMP_temperature;BMP_pressure;BME280_temperature;BME280_humidity;BME280_pressure;Samples;Min_cycle;Max_cycle;Signal;HPM_P1;HPM_P2
2022/04/23 00:01:29;;;;;;;0.10;0.10;;;;;;;15.97;49.41;98057.94;4858566;29;20036;-73
2022/04/23 00:03:55;;;;;;;0.00;0.00;;;;;;;15.95;49.29;98047.50;4858761;29;20025;-73
2022/04/23 00:06:20;;;;;;;0.00;0.00;;;;;;;15.96;49.34;98049.06;4858733;29;20040;-73
2022/04/23 00:08:45;;;;;;;0.10;0.10;;;;;;;15.98;49.24;98040.66;4857747;29;20034;-73
2022/04/23 00:11:11;;;;;;;0.10;0.10;;;;;;;16.02;49.25;98043.47;4858676;29;20037;-73
2022/04/23 00:13:38;;;;;;;0.00;0.00;;;;;;;16.01;48.95;98031.88;4858494;29;20173;-73
2022/04/23 00:16:07;;;;;;;0.10;0.10;;;;;;;16.00;49.16;98030.31;4858633;29;20494;-73
2022/04/23 00:18:33;;;;;;;0.20;0.20;;;;;;;15.98;49.11;98027.16;4858453;29;20049;-73
2022/04/23 00:20:58;;;;;;;0.00;0.00;;;;;;;15.91;49.17;98022.31;4858609;29;20458;-73
2022/04/23 00:23:25;;;;;;;0.00;0.00;;;;;;;15.90;49.37;98019.97;4858432;29;20064;-73
2022/04/23 00:25:52;;;;;;;0.00;0.00;;;;;;;15.86;49.25;98017.16;4858542;29;20029;-72
2022/04/23 00:28:18;;;;;;;0.20;0.20;;;;;;;15.89;49.34;98019.16;4858608;29;20046;-73
2022/04/23 00:30:45;;;;;;;0.73;0.73;;;;;;;15.89;49.20;98026.47;4858358;29;20482;-73
2022/04/23 00:33:10;;;;;;;0.10;0.10;;;;;;;15.86;49.66;98021.78;4857266;29;20078;-73
2022/04/23 00:35:36;;;;;;;0.30;0.30;;;;;;;15.89;49.41;98018.41;4858497;29;20037;-73
2022/04/23 00:38:03;;;;;;;0.68;0.68;;;;;;;15.91;49.39;98014.22;4862078;29;20034;-73
2022/04/23 00:40:28;;;;;;;0.20;0.20;;;;;;;15.91;49.32;98021.56;4861798;29;20034;-73
2022/04/23 00:42:56;;;;;;;0.10;0.10;;;;;;;15.94;49.30;98024.38;4861904;29;20069;-73
2022/04/23 00:45:22;;;;;;;0.00;0.00;;;;;;;15.95;49.52;98027.84;4861938;29;20097;-73
2022/04/23 00:47:49;;;;;;;0.05;0.05;;;;;;;15.99;49.35;98020.63;4861751;29;20045;-73
2022/04/23 00:50:14;;;;;;;0.08;0.08;;;;;;;16.01;49.50;98018.41;4861883;29;20029;-73
2022/04/23 00:52:40;;;;;;;0.30;0.25;;;;;;;16.02;49.66;98028.06;4861659;29;20056;-73
2022/04/23 00:55:08;;;;;;;0.10;0.10;;;;;;;16.01;49.54;98023.78;4861759;29;20506;-73
2022/04/23 00:57:35;;;;;;;0.00;0.00;;;;;;;15.98;49.72;98016.38;4861235;29;20513;-73
2022/04/23 01:00:04;;;;;;;0.17;0.17;;;;;;;15.93;49.85;98025.47;4861648;29;20036;-73
2022/04/23 01:02:29;;;;;;;0.00;0.00;;;;;;;15.91;50.05;98014.22;4861029;29;20045;-73
2022/04/23 01:04:54;;;;;;;0.00;0.00;;;;;;;15.94;50.41;98015.47;4861733;29;20025;-73
2022/04/23 01:07:20;;;;;;;0.00;0.00;;;;;;;15.88;50.18;98006.84;4861534;29;20178;-73
2022/04/23 01:09:48;;;;;;;0.20;0.20;;;;;;;15.82;50.72;98003.56;4861339;29;20236;-73
2022/04/23 01:12:14;;;;;;;0.10;0.10;;;;;;;15.76;50.75;97993.28;4861440;29;20026;-73
2022/04/23 01:15:02;;;;;;;0.00;0.00;;;;;;;15.77;51.10;97987.59;4861193;29;20040;-73
2022/04/23 01:17:28;;;;;;;0.00;0.00;;;;;;;15.73;50.92;97992.06;4844423;29;20395;-73
2022/04/23 01:19:53;;;;;;;0.10;0.10;;;;;;;15.67;50.96;97980.72;4861452;29;20036;-73
2022/04/23 01:22:19;;;;;;;0.00;0.00;;;;;;;15.70;51.24;97981.97;4861335;29;20474;-73
2022/04/23 01:24:44;;;;;;;0.00;0.00;;;;;;;15.67;51.04;97985.31;4860984;29;20030;-73
2022/04/23 01:27:10;;;;;;;0.00;0.00;;;;;;;15.66;51.00;97975.66;4861240;29;20049;-73
2022/04/23 01:29:38;;;;;;;0.38;0.38;;;;;;;15.65;51.28;97971.41;4860948;29;20030;-73
2022/04/23 01:32:04;;;;;;;0.00;0.00;;;;;;;15.67;51.36;97975.34;4859848;29;20034;-73
2022/04/23 01:34:29;;;;;;;0.10;0.10;;;;;;;15.69;51.41;97975.00;4860903;29;20030;-73
2022/04/23 01:36:55;;;;;;;0.10;0.10;;;;;;;15.73;51.24;97969.72;4861268;29;20041;-73
2022/04/23 01:39:20;;;;;;;0.00;0.00;;;;;;;15.67;51.39;97977.22;4860742;29;20032;-73
2022/04/23 01:41:47;;;;;;;0.25;0.25;;;;;;;15.65;51.71;97980.28;4860741;29;20404;-73
2022/04/23 01:44:13;;;;;;;0.10;0.10;;;;;;;15.62;51.84;97974.75;4860919;29;20033;-72
2022/04/23 01:46:38;;;;;;;0.00;0.00;;;;;;;15.58;51.91;97971.19;4860559;29;20040;-73
2022/04/23 01:49:04;;;;;;;0.22;0.22;;;;;;;15.56;51.85;97973.41;4859879;29;20032;-72
2022/04/23 01:51:29;;;;;;;0.00;0.00;;;;;;;15.45;52.24;97962.28;4860486;29;20096;-73
2022/04/23 01:53:54;;;;;;;0.20;0.20;;;;;;;15.42;52.42;97961.03;4860742;29;20033;-73
2022/04/23 01:56:20;;;;;;;0.20;0.20;;;;;;;15.41;52.53;97966.78;4860677;29;20041;-72
2022/04/23 01:58:45;;;;;;;0.10;0.10;;;;;;;15.36;52.52;97965.09;4860470;29;20048;-73
2022/04/23 02:01:11;;;;;;;0.00;0.00;;;;;;;15.29;52.90;97954.06;4860308;29;20029;-73
2022/04/23 02:03:36;;;;;;;0.10;0.10;;;;;;;15.26;52.68;97952.81;4860323;29;20216;-74
2022/04/23 02:06:02;;;;;;;0.00;0.00;;;;;;;15.24;53.17;97949.66;4860474;29;20040;-74
2022/04/23 02:08:27;;;;;;;0.05;0.05;;;;;;;15.21;53.20;97947.66;4860477;29;20033;-74
2022/04/23 02:10:54;;;;;;;0.00;0.00;;;;;;;15.18;53.17;97956.41;4859953;29;20037;-74
2022/04/23 02:13:20;;;;;;;0.25;0.25;;;;;;;15.15;53.58;97952.47;4860404;29;20485;-73
2022/04/23 02:15:45;;;;;;;0.08;0.08;;;;;;;15.13;53.38;97945.84;4860123;29;20045;-74
2022/04/23 02:18:11;;;;;;;0.10;0.10;;;;;;;15.09;53.59;97951.09;4860588;29;20030;-74
2022/04/23 02:20:37;;;;;;;0.00;0.00;;;;;;;15.13;53.99;97962.00;4860008;29;20060;-74
2022/04/23 02:23:03;;;;;;;0.00;0.00;;;;;;;15.11;54.09;97956.94;4860235;29;20033;-74
2022/04/23 02:25:29;;;;;;;0.00;0.00;;;;;;;15.08;54.18;97960.28;4860134;29;20080;-74
2022/04/23 02:27:54;;;;;;;0.10;0.10;;;;;;;15.01;54.56;97962.75;4860182;29;20025;-74
2022/04/23 02:30:21;;;;;;;0.17;0.17;;;;;;;14.97;54.88;97964.53;4860373;29;20070;-74
2022/04/23 02:32:47;;;;;;;0.10;0.10;;;;;;;14.92;55.39;97972.81;4859831;29;20065;-74
2022/04/23 02:35:16;;;;;;;0.00;0.00;;;;;;;14.85;55.39;97982.19;4860049;29;20068;-74
2022/04/23 02:37:44;;;;;;;0.20;0.20;;;;;;;14.83;55.57;97978.25;4859804;29;20030;-74
2022/04/23 02:40:10;;;;;;;0.00;0.00;;;;;;;14.81;55.75;97989.38;4859658;29;20513;-74
2022/04/23 02:42:37;;;;;;;0.00;0.00;;;;;;;14.76;56.11;97986.88;4859693;29;20065;-74
2022/04/23 02:45:06;;;;;;;0.10;0.10;;;;;;;14.78;56.14;98000.81;4859764;29;20116;-74
2022/04/23 02:47:47;;;;;;;0.00;0.00;;;;;;;14.74;56.21;97997.19;4859502;29;20061;-74
2022/04/23 02:50:14;;;;;;;0.08;0.08;;;;;;;14.70;56.33;98005.13;4859782;29;20129;-74
2022/04/23 02:52:43;;;;;;;0.20;0.20;;;;;;;14.69;56.76;98018.91;4859592;29;20056;-74
2022/04/23 02:55:12;;;;;;;0.00;0.00;;;;;;;14.62;56.77;98024.78;4859675;29;20033;-74
2022/04/23 02:57:39;;;;;;;;;;;;;;;14.62;56.95;98024.00;4859784;29;20052;-74
2022/04/23 03:00:06;;;;;;;0.00;0.00;;;;;;;14.59;56.84;98020.06;4859468;29;20395;-74
2022/04/23 03:02:36;;;;;;;0.00;0.00;;;;;;;14.58;56.71;98029.25;4859386;29;20029;-74
2022/04/23 03:05:04;;;;;;;0.00;0.00;;;;;;;14.55;56.59;98030.69;4859428;29;20121;-74
2022/04/23 03:07:31;;;;;;;0.00;0.00;;;;;;;14.53;56.77;98030.22;4859178;29;20490;-74
2022/04/23 03:09:56;;;;;;;0.00;0.00;;;;;;;14.51;57.06;98035.16;4859371;29;20041;-74
2022/04/23 03:12:22;;;;;;;0.00;0.00;;;;;;;14.48;57.32;98043.09;4859433;29;20033;-74
2022/04/23 03:14:48;;;;;;;0.00;0.00;;;;;;;14.44;57.35;98044.84;4859104;29;20025;-74
2022/04/23 03:17:13;;;;;;;0.00;0.00;;;;;;;14.41;57.39;98049.78;4859058;29;20117;-74
2022/04/23 03:19:39;;;;;;;0.00;0.00;;;;;;;14.42;57.18;98055.94;4859067;29;20030;-74
2022/04/23 03:22:04;;;;;;;0.20;0.20;;;;;;;14.40;57.09;98056.25;4859163;29;20033;-74
2022/04/23 03:24:30;;;;;;;0.00;0.00;;;;;;;14.36;57.11;98060.69;4859142;29;20082;-74
2022/04/23 03:26:55;;;;;;;0.00;0.00;;;;;;;14.38;57.25;98063.88;4858946;29;20078;-74
2022/04/23 03:29:21;;;;;;;0.00;0.00;;;;;;;14.35;57.33;98058.34;4859210;29;20108;-74
2022/04/23 03:31:50;;;;;;;0.05;0.05;;;;;;;14.31;57.45;98063.59;4858940;29;20061;-74
2022/04/23 03:34:18;;;;;;;0.00;0.00;;;;;;;14.26;57.20;98077.22;4859102;29;20029;-74
2022/04/23 03:36:44;;;;;;;0.00;0.00;;;;;;;14.23;56.99;98075.16;4858866;29;20034;-74
2022/04/23 03:39:09;;;;;;;0.00;0.00;;;;;;;14.20;57.05;98081.19;4858737;29;20410;-74
2022/04/23 03:41:35;;;;;;;0.20;0.20;;;;;;;14.15;56.92;98092.16;4858502;29;20041;-74
2022/04/23 03:44:00;;;;;;;0.00;0.00;;;;;;;14.12;57.10;98069.34;4858978;29;20030;-73
2022/04/23 03:46:26;;;;;;;0.10;0.10;;;;;;;14.11;57.08;98081.25;4858880;29;20030;-74
2022/04/23 03:48:51;;;;;;;0.00;0.00;;;;;;;14.14;57.04;98069.06;4858727;29;20141;-73
2022/04/23 03:51:16;;;;;;;0.00;0.00;;;;;;;14.16;57.37;98070.31;4858773;29;20068;-73
2022/04/23 03:53:42;;;;;;;0.00;0.00;;;;;;;14.22;57.42;98073.59;4857679;29;20530;-73
2022/04/23 03:56:09;;;;;;;0.00;0.00;;;;;;;14.34;57.27;98062.13;4858861;29;20042;-73
2022/04/23 03:58:35;;;;;;;0.00;0.00;;;;;;;14.48;57.02;98059.22;4858829;29;20422;-73
2022/04/23 04:01:01;;;;;;;9.77;0.63;;;;;;;14.68;56.22;98063.06;4858761;29;20033;-73
2022/04/23 04:03:27;;;;;;;0.00;0.00;;;;;;;14.90;56.22;98070.03;4842166;29;20509;-73
2022/04/23 04:05:53;;;;;;;0.00;0.00;;;;;;;15.16;56.29;98083.31;4858482;29;20081;-73
2022/04/23 04:08:19;;;;;;;0.00;0.00;;;;;;;15.45;55.33;98097.00;4858750;29;20041;-73
2022/04/23 04:10:44;;;;;;;0.00;0.00;;;;;;;15.75;53.80;98094.19;4859208;29;20483;-74
2022/04/23 04:13:09;;;;;;;0.10;0.10;;;;;;;16.03;52.83;98090.84;4862504;29;20033;-72
2022/04/23 04:15:35;;;;;;;0.00;0.00;;;;;;;16.34;52.02;98082.22;4862439;29;20386;-73
2022/04/23 04:18:01;;;;;;;0.00;0.00;;;;;;;16.73;50.55;98093.44;4862163;29;20040;-75
2022/04/23 04:20:29;;;;;;;0.00;0.00;;;;;;;17.08;49.66;98086.75;4862036;29;20055;-75
2022/04/23 04:22:55;;;;;;;0.10;0.10;;;;;;;17.39;48.54;98096.91;4861780;29;20040;-75
2022/04/23 04:25:20;;;;;;;0.00;0.00;;;;;;;17.74;47.32;98106.28;4862208;29;20026;-74
2022/04/23 04:27:46;;;;;;;0.10;0.10;;;;;;;18.04;46.92;98095.09;4862309;29;20049;-75
2022/04/23 04:30:12;;;;;;;0.30;0.30;;;;;;;18.38;45.89;98092.78;4862214;29;20037;-74
2022/04/23 04:32:38;;;;;;;0.10;0.10;;;;;;;18.72;45.39;98088.56;4861982;29;20041;-74
2022/04/23 04:35:04;;;;;;;0.00;0.00;;;;;;;19.04;45.10;98088.47;4862130;29;20035;-75
2022/04/23 04:37:30;;;;;;;0.10;0.10;;;;;;;19.42;44.26;98086.13;4860767;29;20120;-74
2022/04/23 04:39:55;;;;;;;0.10;0.10;;;;;;;19.75;43.37;98097.53;4861795;29;20029;-74
2022/04/23 04:42:21;;;;;;;0.00;0.00;;;;;;;20.09;42.25;98103.19;4861959;29;20040;-74
2022/04/23 04:44:46;;;;;;;0.00;0.00;;;;;;;20.33;41.01;98084.97;4861650;29;20030;-74
2022/04/23 04:47:12;;;;;;;0.03;0.03;;;;;;;20.64;40.79;98098.22;4862154;29;20033;-74
2022/04/23 04:49:38;;;;;;;0.10;0.10;;;;;;;20.94;40.30;98088.56;4861721;29;20443;-74
2022/04/23 04:52:04;;;;;;;0.40;0.40;;;;;;;21.22;39.41;98084.63;4861448;29;20482;-74
2022/04/23 04:54:30;;;;;;;0.00;0.00;;;;;;;21.49;38.81;98085.31;4861734;29;20120;-75
2022/04/23 04:56:56;;;;;;;0.10;0.10;;;;;;;21.81;38.13;98092.25;4861215;29;20581;-75
2022/04/23 04:59:22;;;;;;;0.00;0.00;;;;;;;22.00;37.07;98089.31;4861652;29;20475;-75
2022/04/23 05:01:49;;;;;;;0.03;0.03;;;;;;;22.23;37.31;98104.69;4861426;29;20045;-75
2022/04/23 05:04:15;;;;;;;0.10;0.10;;;;;;;22.52;36.64;98094.81;4861619;29;20033;-75
2022/04/23 05:06:40;;;;;;;0.00;0.00;;;;;;;22.83;35.80;98095.38;4861251;29;20037;-75
2022/04/23 05:09:06;;;;;;;0.10;0.10;;;;;;;23.11;35.58;98090.44;4861534;29;20096;-75
2022/04/23 05:11:31;;;;;;;0.00;0.00;;;;;;;23.39;35.47;98088.97;4861471;29;20419;-74
2022/04/23 05:13:56;;;;;;;0.00;0.00;;;;;;;23.66;34.75;98095.69;4861153;29;20029;-75
2022/04/23 05:16:22;;;;;;;0.00;0.00;;;;;;;23.83;34.23;98096.88;4861121;29;20097;-74
2022/04/23 05:18:47;;;;;;;0.00;0.00;;;;;;;23.90;35.14;98101.59;4861120;29;20044;-75
2022/04/23 05:21:13;;;;;;;0.00;0.00;;;;;;;24.05;34.42;98094.19;4861183;29;20037;-75
2022/04/23 05:23:38;;;;;;;0.10;0.10;;;;;;;24.10;34.39;98102.00;4861210;29;20030;-75
2022/04/23 05:26:04;;;;;;;0.00;0.00;;;;;;;24.29;34.10;98098.09;4860892;29;20030;-75
2022/04/23 05:28:32;;;;;;;0.20;0.20;;;;;;;24.48;33.87;98090.66;4861472;29;20041;-74
2022/04/23 05:30:57;;;;;;;0.00;0.00;;;;;;;24.59;33.28;98082.44;4860933;29;20040;-74
2022/04/23 05:33:23;;;;;;;0.00;0.00;;;;;;;24.72;32.85;98080.13;4861131;29;20459;-74
2022/04/23 05:35:48;;;;;;;0.10;0.10;;;;;;;24.78;32.86;98082.03;4860902;29;20155;-74
2022/04/23 05:38:14;;;;;;;0.00;0.00;;;;;;;24.85;33.36;98078.50;4860782;29;20118;-74
2022/04/23 05:40:40;;;;;;;0.00;0.00;;;;;;;24.96;33.11;98069.47;4860753;29;20175;-74
2022/04/23 05:43:05;;;;;;;0.00;0.00;;;;;;;25.04;33.11;98074.50;4860683;29;20478;-74
2022/04/23 05:45:31;;;;;;;0.00;0.00;;;;;;;25.15;33.14;98079.19;4860769;29;20439;-74
2022/04/23 05:47:57;;;;;;;0.20;0.20;;;;;;;25.23;32.63;98070.53;4860682;29;20471;-74
2022/04/23 05:50:23;;;;;;;0.00;0.00;;;;;;;25.37;32.53;98072.44;4860791;29;20108;-74
2022/04/23 05:52:49;;;;;;;0.00;0.00;;;;;;;25.44;31.63;98068.91;4860464;29;20510;-74
2022/04/23 05:55:14;;;;;;;0.00;0.00;;;;;;;25.55;31.48;98058.66;4860122;29;20041;-73
2022/04/23 05:57:40;;;;;;;0.00;0.00;;;;;;;25.65;31.27;98069.94;4860385;29;20093;-74
2022/04/23 06:00:08;;;;;;;0.00;0.00;;;;;;;25.53;29.97;98061.00;4859844;29;20025;-74
2022/04/23 06:02:34;;;;;;;;;;;;;;;25.45;30.17;98055.97;4860344;29;20041;-74
2022/04/23 06:04:59;;;;;;;0.10;0.10;;;;;;;25.36;30.43;98059.13;4859605;29;19916;-74
2022/04/23 06:07:25;;;;;;;0.00;0.00;;;;;;;25.22;30.36;98052.56;4859851;29;20033;-74
2022/04/23 06:09:50;;;;;;;0.00;0.00;;;;;;;25.05;30.66;98050.69;4859578;29;20048;-74
2022/04/23 06:12:16;;;;;;;0.08;0.08;;;;;;;24.86;30.49;98058.16;4859711;29;20522;-74
2022/04/23 06:14:41;;;;;;;0.00;0.00;;;;;;;24.68;31.10;98071.13;4859691;29;20037;-74
2022/04/23 06:17:12;;;;;;;0.00;0.00;;;;;;;24.47;31.83;98067.22;4859727;29;20037;-75
2022/04/23 06:19:41;;;;;;;0.08;0.08;;;;;;;24.27;31.95;98064.91;4842903;29;20481;-74
2022/04/23 06:22:07;;;;;;;0.00;0.00;;;;;;;24.12;32.12;98069.63;4859280;29;20034;-75
2022/04/23 06:24:33;;;;;;;0.00;0.00;;;;;;;23.89;32.48;98083.63;4858358;29;20045;-75
2022/04/23 06:26:58;;;;;;;0.00;0.00;;;;;;;23.72;32.76;98079.72;4859275;29;20038;-75
2022/04/23 06:29:24;;;;;;;0.00;0.00;;;;;;;23.51;33.73;98075.00;4859197;29;20056;-75
2022/04/23 06:31:49;;;;;;;0.03;0.03;;;;;;;23.44;34.14;98081.22;4859128;29;20112;-74
2022/04/23 06:34:15;;;;;;;0.05;0.05;;;;;;;23.34;34.40;98080.03;4858874;29;20025;-75
2022/04/23 06:36:41;;;;;;;0.00;0.00;;;;;;;23.30;34.59;98075.72;4859276;29;20477;-75
2022/04/23 06:39:07;;;;;;;0.10;0.10;;;;;;;23.28;35.09;98078.84;4858054;29;20410;-75
2022/04/23 06:41:32;;;;;;;0.00;0.00;;;;;;;23.30;35.66;98081.16;4859003;29;20034;-75
2022/04/23 06:43:58;;;;;;;0.00;0.00;;;;;;;23.33;35.82;98089.38;4842304;29;20028;-75
2022/04/23 06:46:23;;;;;;;0.47;0.10;;;;;;;23.28;35.54;98097.94;4859080;29;20033;-75
2022/04/23 06:48:49;;;;;;;0.00;0.00;;;;;;;23.37;36.21;98094.06;4858578;29;20112;-75
2022/04/23 06:51:14;;;;;;;0.00;0.00;;;;;;;23.40;36.23;98098.75;4859034;29;20578;-75
2022/04/23 06:53:40;;;;;;;0.05;0.05;;;;;;;23.18;36.46;98102.19;4859054;29;20061;-75
2022/04/23 06:56:05;;;;;;;0.30;0.30;;;;;;;22.75;36.75;98109.34;4859071;29;20052;-75
2022/04/23 06:58:31;;;;;;;0.17;0.17;;;;;;;22.35;35.92;98120.72;4858918;29;20037;-75
2022/04/23 07:00:58;;;;;;;0.10;0.10;;;;;;;22.02;37.19;98116.16;4858707;29;20139;-75
2022/04/23 07:03:24;;;;;;;1.77;1.65;;;;;;;21.63;37.68;98113.84;4858892;29;20036;-75
2022/04/23 07:05:50;;;;;;;0.65;0.65;;;;;;;21.32;37.68;98107.66;4858813;29;20041;-75
2022/04/23 07:08:15;;;;;;;0.13;0.13;;;;;;;21.10;39.21;98110.09;4859022;29;20025;-74
2022/04/23 07:10:41;;;;;;;0.10;0.10;;;;;;;20.84;40.46;98122.59;4859366;29;20040;-75
2022/04/23 07:13:07;;;;;;;0.10;0.10;;;;;;;20.57;41.56;98108.22;4859161;29;20029;-75
2022/04/23 07:15:33;;;;;;;0.15;0.15;;;;;;;20.35;41.48;98112.50;4859293;29;20537;-74
2022/04/23 07:17:58;;;;;;;0.40;0.35;;;;;;;20.20;43.32;98122.38;4858806;29;20022;-74
2022/04/23 07:20:24;;;;;;;0.05;0.05;;;;;;;20.16;43.63;98122.31;4859167;29;20065;-74
2022/04/23 07:25:41;;;;;;;0.05;0.05;;;;;;;20.25;44.20;98116.63;4843959;29;20056;-74
2022/04/23 07:28:07;;;;;;;0.00;0.00;;;;;;;20.28;45.39;98113.97;4858931;29;20510;-74
2022/04/23 07:30:34;;;;;;;0.00;0.00;;;;;;;20.48;44.31;98122.81;4859176;29;20044;-74
2022/04/23 07:32:59;;;;;;;0.15;0.15;;;;;;;20.54;44.65;98120.56;4858734;29;20029;-74
2022/04/23 07:38:17;;;;;;;0.00;0.00;;;;;;;20.84;43.33;98130.75;4858820;29;20044;-74
2022/04/23 07:40:51;;;;;;;0.00;0.00;;;;;;;21.05;42.64;98127.53;4858905;29;20033;-74
2022/04/23 07:43:17;;;;;;;0.35;0.30;;;;;;;21.26;41.13;98121.59;4858625;29;20043;-74
2022/04/23 07:45:45;;;;;;;0.08;0.08;;;;;;;21.43;40.25;98130.31;4858078;29;20033;-74
2022/04/23 07:48:12;;;;;;;0.25;0.25;;;;;;;21.62;39.77;98126.69;4858490;29;20032;-74
2022/04/23 07:50:40;;;;;;;0.13;0.13;;;;;;;21.66;41.58;98134.88;4858745;29;20068;-74
2022/04/23 07:53:07;;;;;;;0.10;0.10;;;;;;;21.79;42.33;98127.22;4858656;29;20030;-74
2022/04/23 07:55:35;;;;;;;0.08;0.08;;;;;;;21.90;43.10;98128.91;4858674;29;20033;-74
2022/04/23 07:58:01;;;;;;;0.05;0.05;;;;;;;21.89;41.74;98119.16;4858432;29;20030;-74
2022/04/23 08:00:28;;;;;;;0.00;0.00;;;;;;;22.01;41.11;98126.28;4858816;29;20173;-74
2022/04/23 08:02:53;;;;;;;0.20;0.20;;;;;;;22.04;40.31;98133.69;4858482;29;20029;-73
2022/04/23 08:05:19;;;;;;;0.10;0.10;;;;;;;22.11;40.59;98127.53;4858645;29;20034;-73
2022/04/23 08:07:44;;;;;;;0.28;0.28;;;;;;;22.21;39.61;98136.94;4858992;29;20026;-73
2022/04/23 08:10:11;;;;;;;0.05;0.05;;;;;;;22.19;39.17;98129.16;4858464;29;20486;-73
2022/04/23 08:12:37;;;;;;;0.00;0.00;;;;;;;22.31;39.25;98135.47;4858412;29;20532;-74
2022/04/23 08:15:04;;;;;;;0.22;0.22;;;;;;;22.35;38.55;98130.81;4858388;29;20094;-74
2022/04/23 08:17:30;;;;;;;0.70;0.70;;;;;;;22.39;37.11;98134.41;4858304;29;20033;-74
2022/04/23 08:19:56;;;;;;;0.10;0.10;;;;;;;22.52;38.53;98137.59;4858216;29;20073;-74
2022/04/23 08:22:22;;;;;;;0.00;0.00;;;;;;;22.62;38.64;98136.09;4858615;29;20075;-74
2022/04/23 08:24:47;;;;;;;0.00;0.00;;;;;;;22.68;38.87;98138.09;4858521;29;20061;-74
2022/04/23 08:27:13;;;;;;;0.10;0.10;;;;;;;22.83;38.67;98138.97;4856954;29;20042;-74
2022/04/23 08:32:22;;;;;;;0.03;0.03;;;;;;;23.03;38.91;98146.88;4858241;29;20474;-74
2022/04/23 08:34:47;;;;;;;0.10;0.10;;;;;;;23.05;38.72;98141.06;4858525;29;20057;-74
2022/04/23 08:37:13;;;;;;;0.10;0.10;;;;;;;22.94;38.77;98149.19;4858189;29;20057;-74
2022/04/23 08:39:42;;;;;;;0.00;0.00;;;;;;;22.92;38.56;98151.50;4858439;29;20030;-75
2022/04/23 08:42:09;;;;;;;0.10;0.10;;;;;;;22.95;38.07;98146.06;4858202;29;20042;-74
2022/04/23 08:44:41;;;;;;;0.10;0.10;;;;;;;22.89;38.45;98150.31;4858385;29;20061;-74
2022/04/23 08:47:08;;;;;;;0.00;0.00;;;;;;;22.91;38.38;98148.00;4858158;29;20094;-74
2022/04/23 08:49:38;;;;;;;0.00;0.00;;;;;;;22.91;37.92;98137.09;4858296;29;20120;-74
2022/04/23 08:52:16;;;;;;;0.00;0.00;;;;;;;22.89;37.22;98141.34;4858152;29;20054;-75
2022/04/23 08:54:42;;;;;;;0.00;0.00;;;;;;;22.86;38.10;98142.88;4858315;29;20573;-75
2022/04/23 08:57:08;;;;;;;0.00;0.00;;;;;;;22.79;37.71;98140.09;4859025;29;20113;-75
2022/04/23 08:59:34;;;;;;;0.00;0.00;;;;;;;22.81;37.97;98137.78;4861418;29;20116;-75
2022/04/23 09:02:00;;;;;;;0.00;0.00;;;;;;;22.73;38.17;98139.72;4861414;29;20040;-75
2022/04/23 09:04:28;;;;;;;0.20;0.20;;;;;;;22.80;38.51;98141.69;4861595;29;20116;-75
2022/04/23 09:06:54;;;;;;;0.00;0.00;;;;;;;22.79;37.75;98135.47;4861436;29;20062;-75
2022/04/23 09:09:21;;;;;;;0.05;0.05;;;;;;;22.68;37.94;98131.91;4861405;29;20076;-75
2022/04/23 09:12:07;;;;;;;0.10;0.10;;;;;;;22.70;38.68;98130.34;4861404;29;20037;-75
2022/04/23 09:14:33;;;;;;;0.00;0.00;;;;;;;22.69;38.42;98131.50;4860930;29;20042;-75
2022/04/23 09:25:42;;;;;;;0.13;0.13;;;;;;;22.69;38.81;98126.06;4857980;29;20048;-75
2022/04/23 09:28:27;;;;;;;0.03;0.03;;;;;;;22.74;37.67;98124.13;4861020;29;20101;-73
2022/04/23 09:30:55;;;;;;;0.20;0.20;;;;;;;22.81;35.71;98127.69;4861149;29;20154;-74
2022/04/23 09:33:28;;;;;;;0.10;0.10;;;;;;;22.79;36.54;98127.28;4860989;29;20036;-73
2022/04/23 09:35:59;;;;;;;0.10;0.10;;;;;;;22.86;35.52;98129.25;4844437;29;20469;-74
2022/04/23 09:38:26;;;;;;;0.00;0.00;;;;;;;22.75;37.05;98134.63;4861061;29;20056;-74
2022/04/23 09:40:58;;;;;;;0.00;0.00;;;;;;;22.68;35.46;98126.44;4861021;29;20533;-74
2022/04/23 09:43:32;;;;;;;0.10;0.10;;;;;;;22.59;36.26;98132.19;4860913;29;20034;-74
2022/04/23 09:46:08;;;;;;;0.32;0.32;;;;;;;22.54;36.12;98135.28;4859524;29;20397;-74
2022/04/23 09:48:35;;;;;;;0.10;0.10;;;;;;;22.59;35.87;98145.06;4860823;29;20116;-74
2022/04/23 09:51:00;;;;;;;0.10;0.10;;;;;;;22.55;35.65;98142.31;4860089;29;20042;-74
2022/04/23 09:53:29;;;;;;;0.03;0.03;;;;;;;22.48;33.80;98137.56;4860534;29;20533;-74
2022/04/23 09:55:59;;;;;;;0.15;0.15;;;;;;;22.47;35.08;98135.22;4860627;29;20505;-74
2022/04/23 09:58:29;;;;;;;0.73;0.73;;;;;;;22.45;35.36;98138.34;4860494;29;20037;-75
2022/04/23 10:01:22;;;;;;;0.10;0.10;;;;;;;22.44;34.56;98138.72;4860649;29;20049;-75
2022/04/23 10:04:17;;;;;;;0.10;0.10;;;;;;;22.45;36.43;98141.06;4858985;29;20041;-74
2022/04/23 10:06:51;;;;;;;0.10;0.10;;;;;;;22.53;35.70;98136.44;4845161;29;20038;-74
2022/04/23 10:09:21;;;;;;;0.10;0.10;;;;;;;22.53;36.48;98139.97;4842889;29;20395;-74
2022/04/23 10:11:49;;;;;;;0.10;0.10;;;;;;;22.43;35.87;98145.34;4860689;29;20056;-74
2022/04/23 10:14:22;;;;;;;0.05;0.05;;;;;;;22.45;35.88;98138.34;4860089;29;20520;-75
2022/04/23 10:16:49;;;;;;;0.30;0.30;;;;;;;22.31;36.81;98132.75;4860268;29;20037;-75
2022/04/23 10:19:15;;;;;;;0.03;0.03;;;;;;;22.45;36.87;98138.34;4860104;29;20025;-75
2022/04/23 10:22:14;;;;;;;0.30;0.30;;;;;;;22.55;38.09;98148.53;4859843;29;20434;-75
2022/04/23 10:25:06;;;;;;;0.10;0.10;;;;;;;22.66;37.10;98143.16;4860059;29;20030;-75
2022/04/23 10:27:34;;;;;;;0.25;0.25;;;;;;;22.73;36.57;98136.19;4859826;29;20034;-75
2022/04/23 10:30:04;;;;;;;0.05;0.05;;;;;;;22.76;36.25;98136.19;4859579;29;20425;-75
2022/04/23 10:32:43;;;;;;;0.00;0.00;;;;;;;22.82;36.29;98134.69;4860117;29;20033;-75
2022/04/23 10:35:17;;;;;;;0.10;0.10;;;;;;;22.94;36.49;98133.59;4859760;29;20029;-75
2022/04/23 10:37:44;;;;;;;0.00;0.00;;;;;;;23.03;35.60;98131.31;4860266;29;20034;-75
2022/04/23 10:40:16;;;;;;;0.00;0.00;;;;;;;23.07;34.81;98127.81;4859607;29;20037;-75
2022/04/23 10:43:07;;;;;;;0.15;0.15;;;;;;;23.24;36.83;98137.25;4859597;29;20383;-76
2022/04/23 10:45:40;;;;;;;0.03;0.03;;;;;;;23.36;36.44;98130.69;4859818;29;20068;-75
2022/04/23 10:48:27;;;;;;;0.10;0.10;;;;;;;23.49;36.02;98127.22;4859568;29;20037;-75
2022/04/23 10:51:02;;;;;;;0.03;0.03;;;;;;;23.49;34.95;98121.00;4859511;29;20049;-74
2022/04/23 10:53:37;;;;;;;0.03;0.03;;;;;;;23.54;35.41;98133.47;4859649;29;20029;-75
2022/04/23 10:56:21;;;;;;;0.10;0.10;;;;;;;23.60;36.17;98121.78;4859434;29;20034;-75
2022/04/23 10:58:47;;;;;;;0.00;0.00;;;;;;;23.61;34.78;98120.63;4859669;29;20026;-75
2022/04/23 11:01:31;;;;;;;0.80;0.52;;;;;;;23.68;35.41;98119.88;4859269;29;20049;-75
2022/04/23 11:03:56;;;;;;;0.10;0.10;;;;;;;23.69;35.04;98121.41;4859414;29;20034;-75
2022/04/23 11:12:30;;;;;;;0.00;0.00;;;;;;;23.82;36.67;98119.13;4837049;29;20475;-75
2022/04/23 11:14:56;;;;;;;0.10;0.10;;;;;;;23.86;35.39;98114.44;4859267;29;20039;-75
2022/04/23 11:17:22;;;;;;;0.38;0.38;;;;;;;23.92;35.52;98107.44;4858959;29;20128;-75
2022/04/23 11:19:52;;;;;;;0.00;0.00;;;;;;;23.97;35.00;98109.81;4859041;29;20033;-75
2022/04/23 11:22:19;;;;;;;0.00;0.00;;;;;;;24.05;35.17;98096.94;4858799;29;20406;-75
2022/04/23 11:24:47;;;;;;;0.00;0.00;;;;;;;24.03;34.42;98104.72;4859103;29;20026;-75
2022/04/23 11:27:38;;;;;;;;;;;;;;;24.03;34.36;98099.25;4859344;29;20093;-75
2022/04/23 11:30:05;;;;;;;0.10;0.10;;;;;;;24.06;35.79;98098.50;4858941;29;19966;-75
2022/04/23 11:32:33;;;;;;;0.03;0.03;;;;;;;24.09;35.48;98097.69;4858689;29;20568;-75
2022/04/23 11:34:59;;;;;;;0.10;0.10;;;;;;;24.14;35.85;98096.53;4859039;29;20040;-75
2022/04/23 11:37:35;;;;;;;0.00;0.00;;;;;;;24.20;35.04;98099.66;4858813;29;20033;-74
2022/04/23 11:40:12;;;;;;;0.00;0.00;;;;;;;24.27;34.40;98091.47;4858746;29;20379;-75
2022/04/23 11:42:45;;;;;;;0.00;0.00;;;;;;;24.29;33.95;98092.63;4858695;29;20038;-75
2022/04/23 11:45:14;;;;;;;0.10;0.10;;;;;;;24.34;34.28;98088.75;4858710;29;20033;-75
2022/04/23 11:47:39;;;;;;;0.08;0.08;;;;;;;24.44;34.04;98085.19;4857714;29;20037;-74
2022/04/23 11:50:15;;;;;;;0.00;0.00;;;;;;;24.56;33.64;98081.28;4858756;29;20026;-74
2022/04/23 11:52:42;;;;;;;0.00;0.00;;;;;;;24.50;32.27;98091.06;4858753;29;20086;-73
2022/04/23 11:55:19;;;;;;;0.00;0.00;;;;;;;24.49;31.89;98091.47;4858598;29;20034;-75
2022/04/23 11:57:55;;;;;;;0.00;0.00;;;;;;;24.54;33.11;98091.06;4858546;29;20029;-73
2022/04/23 12:00:21;;;;;;;0.00;0.00;;;;;;;24.58;34.72;98092.63;4857842;29;20085;-74